createdAt,value
2022-07-29T00:01:01.951Z,17.31
2022-07-29T00:02:09.292Z,17.21
2022-07-29T00:03:17.738Z,17.14
2022-07-29T00:04:25.866Z,17.09
2022-07-29T00:05:32.136Z,17.22
2022-07-29T00:06:38.779Z,16.94
2022-07-29T00:07:45.935Z,16.72
2022-07-29T00:08:53.251Z,16.95
2022-07-29T00:10:01.334Z,17.19
2022-07-29T00:11:09.732Z,17.22
2022-07-29T00:12:21.359Z,17.13
2022-07-29T00:13:33.429Z,16.76
2022-07-29T00:14:40.606Z,16.61
2022-07-29T00:15:51.044Z,16.96
2022-07-29T00:16:58.728Z,17.02
2022-07-29T00:18:07.300Z,16.49
2022-07-29T00:19:15.490Z,15.46
2022-07-29T00:20:23.769Z,15.58
2022-07-29T00:21:31.140Z,15.96
2022-07-29T00:22:40.653Z,16.25
2022-07-29T00:23:47.685Z,16.66
2022-07-29T00:24:55.240Z,16.79
2022-07-29T00:26:05.312Z,16.69
2022-07-29T00:27:11.398Z,16.52
2022-07-29T00:28:19.479Z,16.47
2022-07-29T00:29:34.740Z,16.45
2022-07-29T00:30:46.811Z,16.92
2022-07-29T00:31:54.946Z,17.20
2022-07-29T00:33:01.596Z,17.67
2022-07-29T00:34:29.725Z,17.67
2022-07-29T00:35:48.789Z,17.21
2022-07-29T00:36:55.590Z,17.27
2022-07-29T00:38:02.249Z,17.68
2022-07-29T00:39:08.664Z,17.65
2022-07-29T00:40:17.708Z,17.64
2022-07-29T00:41:25.139Z,17.90
2022-07-29T00:42:44.497Z,17.31
2022-07-29T00:43:54.713Z,17.32
2022-07-29T00:45:04.349Z,17.39
2022-07-29T00:46:11.025Z,17.31
2022-07-29T00:47:19.029Z,17.27
2022-07-29T00:48:28.765Z,17.57
2022-07-29T00:49:35.462Z,18.09
2022-07-29T00:50:45.285Z,18.20
2022-07-29T00:51:52.761Z,18.21
2022-07-29T00:53:03.443Z,18.39
2022-07-29T00:54:14.631Z,18.41
2022-07-29T00:55:22.664Z,18.59
2022-07-29T00:56:28.534Z,19.00
2022-07-29T00:57:34.417Z,18.99
2022-07-29T00:58:41.889Z,19.22
2022-07-29T00:59:49.860Z,19.54
2022-07-29T01:00:59.651Z,19.68
2022-07-29T01:02:09.357Z,19.81
2022-07-29T01:03:16.040Z,20.32
2022-07-29T01:04:23.650Z,20.35
2022-07-29T01:05:50.001Z,20.35
2022-07-29T01:07:01.333Z,20.26
2022-07-29T01:08:10.852Z,20.03
2022-07-29T01:09:17.601Z,20.16
2022-07-29T01:10:44.341Z,20.80
2022-07-29T01:11:50.286Z,21.35
2022-07-29T01:12:57.882Z,21.44
2022-07-29T01:14:05.043Z,21.73
2022-07-29T01:15:12.293Z,21.79
2022-07-29T01:16:34.923Z,21.73
2022-07-29T01:18:09.467Z,21.70
2022-07-29T01:19:34.536Z,21.67
2022-07-29T01:21:10.590Z,21.24
2022-07-29T01:22:43.205Z,21.08
2022-07-29T01:24:02.338Z,21.00
2022-07-29T01:25:40.734Z,20.91
2022-07-29T01:27:08.822Z,20.68
2022-07-29T01:28:40.756Z,20.60
2022-07-29T01:30:01.018Z,20.45
2022-07-29T01:31:08.533Z,20.67
2022-07-29T01:32:28.722Z,20.70
2022-07-29T01:33:53.307Z,20.71
2022-07-29T01:35:12.821Z,20.68
2022-07-29T01:36:42.554Z,20.86
2022-07-29T01:38:04.128Z,20.69
2022-07-29T01:39:41.203Z,20.90
2022-07-29T01:41:17.897Z,21.18
2022-07-29T01:42:40.623Z,21.27
2022-07-29T01:44:15.171Z,21.41
2022-07-29T01:45:22.885Z,21.52
2022-07-29T01:46:35.695Z,21.54
2022-07-29T01:48:02.693Z,21.81
2022-07-29T01:49:19.391Z,22.29
2022-07-29T01:50:29.488Z,22.54
2022-07-29T01:51:38.166Z,22.77
2022-07-29T01:52:49.859Z,23.23
2022-07-29T01:54:07.062Z,23.52
2022-07-29T01:55:17.730Z,24.02
2022-07-29T01:56:25.188Z,24.22
2022-07-29T01:57:33.769Z,24.27
2022-07-29T01:58:42.584Z,24.14
2022-07-29T01:59:50.973Z,24.14
2022-07-29T02:01:01.968Z,24.27
2022-07-29T02:02:10.614Z,24.33
2022-07-29T02:03:17.935Z,24.47
2022-07-29T02:04:29.012Z,24.76
2022-07-29T02:05:36.730Z,24.89
2022-07-29T02:06:44.043Z,24.95
2022-07-29T02:07:50.919Z,24.94
2022-07-29T02:08:57.763Z,25.04
2022-07-29T02:10:06.379Z,24.98
2022-07-29T02:11:17.117Z,24.95
2022-07-29T02:12:23.926Z,25.00
2022-07-29T02:13:31.014Z,25.17
2022-07-29T02:14:46.879Z,25.26
2022-07-29T02:15:53.673Z,25.30
2022-07-29T02:17:00.034Z,25.36
2022-07-29T02:18:11.847Z,25.44
2022-07-29T02:19:21.351Z,25.46
2022-07-29T02:20:28.727Z,25.62
2022-07-29T02:21:37.376Z,25.70
2022-07-29T02:22:44.197Z,25.76
2022-07-29T02:23:51.428Z,25.86
2022-07-29T02:24:57.679Z,25.95
2022-07-29T02:26:04.213Z,26.06
2022-07-29T02:27:12.932Z,26.07
2022-07-29T02:28:18.972Z,26.01
2022-07-29T02:29:27.093Z,25.93
2022-07-29T02:30:35.793Z,25.96
2022-07-29T02:31:43.419Z,25.92
2022-07-29T02:32:54.450Z,25.80
2022-07-29T02:34:02.019Z,25.49
2022-07-29T02:35:11.123Z,25.01
2022-07-29T02:36:17.053Z,24.62
2022-07-29T02:37:25.903Z,24.47
2022-07-29T02:38:53.121Z,24.75
2022-07-29T02:40:01.501Z,25.14
2022-07-29T02:41:13.556Z,25.37
2022-07-29T02:42:19.870Z,25.52
2022-07-29T02:43:27.790Z,25.52
2022-07-29T02:44:36.277Z,25.54
2022-07-29T02:45:42.572Z,25.45
2022-07-29T02:46:54.494Z,25.25
2022-07-29T02:48:01.260Z,25.38
2022-07-29T02:49:38.104Z,25.38
2022-07-29T02:51:07.250Z,25.45
2022-07-29T02:52:40.520Z,25.18
2022-07-29T02:53:52.485Z,25.05
2022-07-29T02:55:30.211Z,25.20
2022-07-29T02:56:39.975Z,25.34
2022-07-29T02:57:54.886Z,25.50
2022-07-29T02:59:08.971Z,25.84
2022-07-29T03:00:17.207Z,25.85
2022-07-29T03:01:26.639Z,25.94
2022-07-29T03:02:34.244Z,26.07
2022-07-29T03:03:41.454Z,26.36
2022-07-29T03:04:51.259Z,26.26
2022-07-29T03:06:00.581Z,26.29
2022-07-29T03:07:08.472Z,26.49
2022-07-29T03:08:15.280Z,26.50
2022-07-29T03:09:22.675Z,26.73
2022-07-29T03:10:29.236Z,26.76
2022-07-29T03:11:41.478Z,26.60
2022-07-29T03:12:59.071Z,26.59
2022-07-29T03:14:06.472Z,25.87
2022-07-29T03:15:15.198Z,25.85
2022-07-29T03:16:22.234Z,25.64
2022-07-29T03:17:30.628Z,25.88
2022-07-29T03:18:36.519Z,25.56
2022-07-29T03:19:43.451Z,25.29
2022-07-29T03:20:50.484Z,25.37
2022-07-29T03:21:58.546Z,25.46
2022-07-29T03:23:06.849Z,25.31
2022-07-29T03:24:25.583Z,25.39
2022-07-29T03:25:31.860Z,25.49
2022-07-29T03:26:40.702Z,25.49
2022-07-29T03:27:48.185Z,25.61
2022-07-29T03:28:56.855Z,25.51
2022-07-29T03:30:03.762Z,25.63
2022-07-29T03:31:15.222Z,25.97
2022-07-29T03:32:24.001Z,26.09
2022-07-29T03:33:34.460Z,26.12
2022-07-29T03:34:41.392Z,26.03
2022-07-29T03:35:48.321Z,26.10
2022-07-29T03:36:56.581Z,26.14
2022-07-29T03:38:05.310Z,26.27
2022-07-29T03:39:14.799Z,26.35
2022-07-29T03:40:57.603Z,26.21
2022-07-29T03:42:06.751Z,26.45
2022-07-29T03:43:17.747Z,26.70
2022-07-29T03:44:25.001Z,26.74
2022-07-29T03:45:34.513Z,26.75
2022-07-29T03:46:42.895Z,27.14
2022-07-29T03:48:04.304Z,27.10
2022-07-29T03:49:13.963Z,27.63
2022-07-29T03:50:21.956Z,27.62
2022-07-29T03:51:33.396Z,27.92
2022-07-29T03:52:42.729Z,28.36
2022-07-29T03:53:52.563Z,28.80
2022-07-29T03:55:02.654Z,28.73
2022-07-29T03:56:08.897Z,28.99
2022-07-29T03:57:17.070Z,29.09
2022-07-29T03:58:23.581Z,29.27
2022-07-29T03:59:30.012Z,29.35
2022-07-29T04:00:37.749Z,29.43
2022-07-29T04:01:47.514Z,29.64
2022-07-29T04:02:56.227Z,29.72
2022-07-29T04:04:07.119Z,29.69
2022-07-29T04:05:17.396Z,30.11
2022-07-29T04:06:24.248Z,29.99
2022-07-29T04:07:32.050Z,30.51
2022-07-29T04:08:38.955Z,30.70
2022-07-29T04:09:46.555Z,30.88
2022-07-29T04:10:54.055Z,31.56
2022-07-29T04:12:03.307Z,32.30
2022-07-29T04:13:10.982Z,32.71
2022-07-29T04:14:18.231Z,33.02
2022-07-29T04:15:24.959Z,33.39
2022-07-29T04:16:30.824Z,33.67
2022-07-29T04:17:36.791Z,33.79
2022-07-29T04:18:44.591Z,33.74
2022-07-29T04:19:51.276Z,33.56
2022-07-29T04:20:57.706Z,33.20
2022-07-29T04:22:03.756Z,32.86
2022-07-29T04:23:12.963Z,32.88
2022-07-29T04:24:20.510Z,33.40
2022-07-29T04:25:26.596Z,33.62
2022-07-29T04:26:32.557Z,33.99
2022-07-29T04:27:59.525Z,34.47
2022-07-29T04:29:06.369Z,34.53
2022-07-29T04:30:12.449Z,34.72
2022-07-29T04:31:23.820Z,35.24
2022-07-29T04:32:32.990Z,35.31
2022-07-29T04:33:39.393Z,35.44
2022-07-29T04:34:48.167Z,35.28
2022-07-29T04:35:55.104Z,35.34
2022-07-29T04:37:04.622Z,35.38
2022-07-29T04:38:15.590Z,35.86
2022-07-29T04:39:24.176Z,36.33
2022-07-29T04:40:30.734Z,36.35
2022-07-29T04:41:39.793Z,36.64
2022-07-29T04:42:46.896Z,36.60
2022-07-29T04:43:56.185Z,37.01
2022-07-29T04:45:05.568Z,37.56
2022-07-29T04:46:15.150Z,37.59
2022-07-29T04:47:21.059Z,37.61
2022-07-29T04:48:29.001Z,37.71
2022-07-29T04:49:35.464Z,38.01
2022-07-29T04:50:41.429Z,38.02
2022-07-29T04:51:50.315Z,37.90
2022-07-29T04:52:56.445Z,37.93
2022-07-29T04:54:03.900Z,38.45
2022-07-29T04:55:11.722Z,38.37
2022-07-29T04:56:17.766Z,38.38
2022-07-29T04:57:24.676Z,38.37
2022-07-29T04:58:30.565Z,38.60
2022-07-29T04:59:37.540Z,38.76
2022-07-29T05:00:43.539Z,38.82
2022-07-29T05:01:49.862Z,39.03
2022-07-29T05:02:56.761Z,39.31
2022-07-29T05:04:04.406Z,39.35
2022-07-29T05:05:11.328Z,39.39
2022-07-29T05:06:17.166Z,39.31
2022-07-29T05:07:23.202Z,39.50
2022-07-29T05:08:29.252Z,40.15
2022-07-29T05:09:35.003Z,40.23
2022-07-29T05:10:42.097Z,40.04
2022-07-29T05:11:48.041Z,40.23
2022-07-29T05:12:54.089Z,40.54
2022-07-29T05:13:59.893Z,40.49
2022-07-29T05:15:07.964Z,40.66
2022-07-29T05:16:14.760Z,40.86
2022-07-29T05:17:23.538Z,40.85
2022-07-29T05:18:31.307Z,41.47
2022-07-29T05:19:39.945Z,41.17
2022-07-29T05:20:45.887Z,41.10
2022-07-29T05:21:51.889Z,41.22
2022-07-29T05:23:01.530Z,41.51
2022-07-29T05:24:11.126Z,41.66
2022-07-29T05:25:20.540Z,41.46
2022-07-29T05:26:27.275Z,41.88
2022-07-29T05:27:35.986Z,42.03
2022-07-29T05:28:43.686Z,41.97
2022-07-29T05:29:49.906Z,42.05
2022-07-29T05:30:57.923Z,42.16
2022-07-29T05:32:04.395Z,42.23
2022-07-29T05:33:35.834Z,42.01
2022-07-29T05:34:50.403Z,42.21
2022-07-29T05:36:00.810Z,42.35
2022-07-29T05:37:08.170Z,42.46
2022-07-29T05:38:15.408Z,43.06
2022-07-29T05:39:47.252Z,42.80
2022-07-29T05:40:53.979Z,42.80
2022-07-29T05:42:03.358Z,43.06
2022-07-29T05:43:10.554Z,43.00
2022-07-29T05:44:19.169Z,43.20
2022-07-29T05:45:27.761Z,43.25
2022-07-29T05:46:34.219Z,43.39
2022-07-29T05:47:41.579Z,43.89
2022-07-29T05:48:47.948Z,43.79
2022-07-29T05:49:55.892Z,43.61
2022-07-29T05:51:02.508Z,43.64
2022-07-29T05:52:12.663Z,44.22
2022-07-29T05:53:20.839Z,44.29
2022-07-29T05:54:27.814Z,44.27
2022-07-29T05:55:34.381Z,44.31
2022-07-29T05:56:41.534Z,44.74
2022-07-29T05:57:52.265Z,44.96
2022-07-29T05:58:59.455Z,44.84
2022-07-29T06:00:08.632Z,44.62
2022-07-29T06:01:25.502Z,44.65
2022-07-29T06:02:32.132Z,45.03
2022-07-29T06:03:40.086Z,45.13
2022-07-29T06:04:47.193Z,45.08
2022-07-29T06:05:55.134Z,45.00
2022-07-29T06:07:04.453Z,45.24
2022-07-29T06:08:14.601Z,45.58
2022-07-29T06:09:24.890Z,45.81
2022-07-29T06:10:31.543Z,45.54
2022-07-29T06:11:38.193Z,46.44
2022-07-29T06:12:46.955Z,46.18
2022-07-29T06:13:55.916Z,46.39
2022-07-29T06:15:02.371Z,46.77
2022-07-29T06:16:08.948Z,47.45
2022-07-29T06:17:15.908Z,47.03
2022-07-29T06:18:25.227Z,46.94
2022-07-29T06:19:31.158Z,46.58
2022-07-29T06:20:38.526Z,46.92
2022-07-29T06:21:46.240Z,47.23
2022-07-29T06:22:52.664Z,47.15
2022-07-29T06:24:01.637Z,47.85
2022-07-29T06:25:08.099Z,47.78
2022-07-29T06:26:14.138Z,47.69
2022-07-29T06:27:20.970Z,47.97
2022-07-29T06:28:27.825Z,48.09
2022-07-29T06:29:36.102Z,48.20
2022-07-29T06:30:43.551Z,48.66
2022-07-29T06:31:50.384Z,48.82
2022-07-29T06:32:58.224Z,49.37
2022-07-29T06:34:06.497Z,49.46
2022-07-29T06:35:39.214Z,49.27
2022-07-29T06:36:41.735Z,49.20
2022-07-29T06:37:50.352Z,49.11
2022-07-29T06:39:03.324Z,49.02
2022-07-29T06:40:31.877Z,49.60
2022-07-29T06:41:39.900Z,49.31
2022-07-29T06:42:50.269Z,49.41
2022-07-29T06:43:57.872Z,49.50
2022-07-29T06:45:09.211Z,49.35
2022-07-29T06:46:22.806Z,49.69
2022-07-29T06:47:29.837Z,49.89
2022-07-29T06:48:37.697Z,49.45
2022-07-29T06:49:47.076Z,49.54
2022-07-29T06:50:53.563Z,49.73
2022-07-29T06:52:04.060Z,50.39
2022-07-29T06:53:13.360Z,50.36
2022-07-29T06:54:20.365Z,50.19
2022-07-29T06:55:28.877Z,51.06
2022-07-29T06:56:40.425Z,51.07
2022-07-29T06:57:48.897Z,51.37
2022-07-29T06:59:01.615Z,51.60
2022-07-29T07:00:10.747Z,51.26
2022-07-29T07:01:18.272Z,51.30
2022-07-29T07:02:24.828Z,51.16
2022-07-29T07:03:30.814Z,50.99
2022-07-29T07:04:38.058Z,50.83
2022-07-29T07:05:45.784Z,50.78
2022-07-29T07:06:52.973Z,50.93
2022-07-29T07:07:59.408Z,50.83
2022-07-29T07:09:05.672Z,50.87
2022-07-29T07:10:14.330Z,51.05
2022-07-29T07:11:20.237Z,51.04
2022-07-29T07:12:29.335Z,51.30
2022-07-29T07:13:39.314Z,51.23
2022-07-29T07:14:46.016Z,51.30
2022-07-29T07:15:56.010Z,51.69
2022-07-29T07:17:06.461Z,52.43
2022-07-29T07:18:12.956Z,53.00
2022-07-29T07:19:20.856Z,53.09
2022-07-29T07:20:28.197Z,53.03
2022-07-29T07:21:36.977Z,53.59
2022-07-29T07:22:43.897Z,53.43
2022-07-29T07:23:51.743Z,53.15
2022-07-29T07:24:57.792Z,52.90
2022-07-29T07:26:07.472Z,52.89
2022-07-29T07:27:17.119Z,53.05
2022-07-29T07:28:25.061Z,52.99
2022-07-29T07:29:31.605Z,52.69
2022-07-29T07:30:37.911Z,53.00
2022-07-29T07:31:45.955Z,53.59
2022-07-29T07:32:54.026Z,53.42
2022-07-29T07:34:02.587Z,53.39
2022-07-29T07:35:11.684Z,53.30
2022-07-29T07:36:19.110Z,53.49
2022-07-29T07:37:26.827Z,53.37
2022-07-29T07:38:35.212Z,53.61
2022-07-29T07:39:44.135Z,53.79
2022-07-29T07:40:51.213Z,53.68
2022-07-29T07:42:00.585Z,53.50
2022-07-29T07:43:10.383Z,53.50
2022-07-29T07:44:20.521Z,53.37
2022-07-29T07:45:26.933Z,53.27
2022-07-29T07:46:35.756Z,53.16
2022-07-29T07:47:45.185Z,53.18
2022-07-29T07:48:52.230Z,53.56
2022-07-29T07:49:59.030Z,53.49
2022-07-29T07:51:05.775Z,53.42
2022-07-29T07:52:13.815Z,53.80
2022-07-29T07:53:19.618Z,55.18
2022-07-29T07:54:28.543Z,56.19
2022-07-29T07:56:00.365Z,56.93
2022-07-29T07:57:06.419Z,57.85
2022-07-29T07:58:13.917Z,57.99
2022-07-29T07:59:20.755Z,58.21
2022-07-29T08:00:28.510Z,58.29
2022-07-29T08:01:55.041Z,58.58
2022-07-29T08:03:04.953Z,59.04
2022-07-29T08:04:28.371Z,58.90
2022-07-29T08:05:39.484Z,59.27
2022-07-29T08:06:45.450Z,59.89
2022-07-29T08:07:54.433Z,60.48
2022-07-29T08:09:26.816Z,60.48
2022-07-29T08:10:48.170Z,60.00
2022-07-29T08:11:58.876Z,59.86
2022-07-29T08:13:10.191Z,60.02
2022-07-29T08:14:20.474Z,59.93
2022-07-29T08:15:27.294Z,59.50
2022-07-29T08:16:36.182Z,59.79
2022-07-29T08:17:43.091Z,59.31
2022-07-29T08:18:49.561Z,59.41
2022-07-29T08:19:55.918Z,59.85
2022-07-29T08:21:02.654Z,60.29
2022-07-29T08:22:08.860Z,60.51
2022-07-29T08:23:16.062Z,61.17
2022-07-29T08:24:41.206Z,61.22
2022-07-29T08:25:50.939Z,60.98
2022-07-29T08:26:58.184Z,60.73
2022-07-29T08:28:06.267Z,60.58
2022-07-29T08:29:18.419Z,60.51
2022-07-29T08:30:28.830Z,60.93
2022-07-29T08:31:38.112Z,61.12
2022-07-29T08:32:53.686Z,60.82
2022-07-29T08:34:04.078Z,60.56
2022-07-29T08:35:10.915Z,60.25
2022-07-29T08:36:19.664Z,59.98
2022-07-29T08:37:26.974Z,59.55
2022-07-29T08:38:35.439Z,59.29
2022-07-29T08:39:41.225Z,58.89
2022-07-29T08:40:48.090Z,58.67
2022-07-29T08:42:00.210Z,58.28
2022-07-29T08:43:08.694Z,58.18
2022-07-29T08:44:22.264Z,58.16
2022-07-29T08:45:28.813Z,58.23
2022-07-29T08:46:34.979Z,58.07
2022-07-29T08:47:43.432Z,57.70
2022-07-29T08:48:50.897Z,57.69
2022-07-29T08:49:59.845Z,57.98
2022-07-29T08:51:05.938Z,58.01
2022-07-29T08:52:14.139Z,58.13
2022-07-29T08:53:20.968Z,58.03
2022-07-29T08:54:29.497Z,58.08
2022-07-29T08:55:36.596Z,58.29
2022-07-29T08:56:42.714Z,58.46
2022-07-29T08:57:54.158Z,58.53
2022-07-29T08:59:06.392Z,58.74
2022-07-29T09:00:13.638Z,58.81
2022-07-29T09:01:23.522Z,58.80
2022-07-29T09:02:45.093Z,59.13
2022-07-29T09:03:53.014Z,59.94
2022-07-29T09:05:00.704Z,59.91
2022-07-29T09:06:07.085Z,59.89
2022-07-29T09:07:19.488Z,60.14
2022-07-29T09:08:28.011Z,60.51
2022-07-29T09:09:36.172Z,60.86
2022-07-29T09:10:44.128Z,61.03
2022-07-29T09:11:50.034Z,61.39
2022-07-29T09:12:57.782Z,62.07
2022-07-29T09:14:04.063Z,62.33
2022-07-29T09:15:10.323Z,62.43
2022-07-29T09:16:43.894Z,62.82
2022-07-29T09:17:50.818Z,62.91
2022-07-29T09:18:58.105Z,62.97
2022-07-29T09:20:24.936Z,63.27
2022-07-29T09:21:50.526Z,63.66
2022-07-29T09:22:57.332Z,64.25
2022-07-29T09:24:13.621Z,64.19
2022-07-29T09:25:36.229Z,63.85
2022-07-29T09:26:46.236Z,63.44
2022-07-29T09:27:52.701Z,64.00
2022-07-29T09:28:58.628Z,64.01
2022-07-29T09:30:08.443Z,63.98
2022-07-29T09:31:15.061Z,63.97
2022-07-29T09:32:21.246Z,64.09
2022-07-29T09:33:40.942Z,64.39
2022-07-29T09:34:48.034Z,64.10
2022-07-29T09:36:10.302Z,63.97
2022-07-29T09:37:31.381Z,63.93
2022-07-29T09:38:38.486Z,63.69
2022-07-29T09:39:48.055Z,64.00
2022-07-29T09:41:06.084Z,64.13
2022-07-29T09:42:14.245Z,64.45
2022-07-29T09:43:22.812Z,64.82
2022-07-29T09:44:43.782Z,65.30
2022-07-29T09:45:50.753Z,65.73
2022-07-29T09:47:09.867Z,65.86
2022-07-29T09:48:19.907Z,65.87
2022-07-29T09:49:25.791Z,65.88
2022-07-29T09:50:40.316Z,65.78
2022-07-29T09:51:46.953Z,65.54
2022-07-29T09:52:55.146Z,65.75
2022-07-29T09:54:01.984Z,65.83
2022-07-29T09:55:09.549Z,66.06
2022-07-29T09:56:15.787Z,65.93
2022-07-29T09:57:30.816Z,65.97
2022-07-29T09:58:41.660Z,65.78
2022-07-29T10:00:03.531Z,65.60
2022-07-29T10:01:19.754Z,65.24
2022-07-29T10:02:29.170Z,65.01
2022-07-29T10:03:34.952Z,65.20
2022-07-29T10:04:45.361Z,65.22
2022-07-29T10:06:12.346Z,65.30
2022-07-29T10:07:21.308Z,65.60
2022-07-29T10:08:29.585Z,65.55
2022-07-29T10:09:36.729Z,65.45
2022-07-29T10:10:44.016Z,65.25
2022-07-29T10:12:17.901Z,65.26
2022-07-29T10:13:24.357Z,65.23
2022-07-29T10:14:30.265Z,65.27
2022-07-29T10:15:42.754Z,65.36
2022-07-29T10:16:51.905Z,65.50
2022-07-29T10:17:58.652Z,65.51
2022-07-29T10:19:06.220Z,65.71
2022-07-29T10:20:16.143Z,65.64
2022-07-29T10:21:36.224Z,65.56
2022-07-29T10:22:52.884Z,65.48
2022-07-29T10:24:01.839Z,65.56
2022-07-29T10:25:08.061Z,65.50
2022-07-29T10:26:13.945Z,65.53
2022-07-29T10:27:20.446Z,65.63
2022-07-29T10:28:26.891Z,65.71
2022-07-29T10:29:35.784Z,65.89
2022-07-29T10:30:42.689Z,66.09
2022-07-29T10:31:58.947Z,66.11
2022-07-29T10:33:17.745Z,66.22
2022-07-29T10:34:31.371Z,66.22
2022-07-29T10:35:43.176Z,66.30
2022-07-29T10:37:02.596Z,66.10
2022-07-29T10:38:28.005Z,65.81
2022-07-29T10:39:58.284Z,65.66
2022-07-29T10:41:43.888Z,65.91
2022-07-29T10:42:54.951Z,66.18
2022-07-29T10:44:23.118Z,66.26
2022-07-29T10:45:29.913Z,66.54
2022-07-29T10:46:41.585Z,66.56
2022-07-29T10:47:48.361Z,66.70
2022-07-29T10:49:15.285Z,66.62
2022-07-29T10:50:21.732Z,66.52
2022-07-29T10:51:27.867Z,66.34
2022-07-29T10:52:52.584Z,66.27
2022-07-29T10:54:01.257Z,66.42
2022-07-29T10:55:07.708Z,66.59
2022-07-29T10:56:28.205Z,66.83
2022-07-29T10:57:54.054Z,66.96
2022-07-29T10:59:36.100Z,67.05
2022-07-29T11:00:43.314Z,67.04
2022-07-29T11:01:53.614Z,66.88
2022-07-29T11:03:01.636Z,66.74
2022-07-29T11:04:11.416Z,66.46
2022-07-29T11:05:21.734Z,66.32
2022-07-29T11:06:31.293Z,66.34
2022-07-29T11:07:42.632Z,66.36
2022-07-29T11:09:25.666Z,66.27
2022-07-29T11:10:42.685Z,66.54
2022-07-29T11:11:52.440Z,66.82
2022-07-29T11:13:03.821Z,67.00
2022-07-29T11:14:14.579Z,67.07
2022-07-29T11:15:28.461Z,66.88
2022-07-29T11:17:06.917Z,66.66
2022-07-29T11:18:15.062Z,66.49
2022-07-29T11:19:30.836Z,66.50
2022-07-29T11:20:49.906Z,66.73
2022-07-29T11:22:00.437Z,66.65
2022-07-29T11:23:27.348Z,66.77
2022-07-29T11:24:36.100Z,66.95
2022-07-29T11:27:22.615Z,67.19
2022-07-29T11:28:28.960Z,67.12
2022-07-29T11:29:39.896Z,67.05
2022-07-29T11:30:54.324Z,66.80
2022-07-29T11:33:56.147Z,67.00
2022-07-29T11:35:37.354Z,67.21
2022-07-29T11:37:17.999Z,67.61
2022-07-29T11:38:33.143Z,67.85
2022-07-29T11:39:41.029Z,68.05
2022-07-29T11:41:20.990Z,68.14
2022-07-29T11:42:28.151Z,68.04
2022-07-29T11:43:55.237Z,68.12
2022-07-29T11:45:41.440Z,68.23
2022-07-29T11:46:54.501Z,68.44
2022-07-29T11:49:34.700Z,69.02
2022-07-29T11:50:45.621Z,69.21
2022-07-29T11:51:56.708Z,69.17
2022-07-29T11:53:08.817Z,69.16
2022-07-29T11:54:16.036Z,69.05
2022-07-29T11:55:32.613Z,68.99
2022-07-29T11:56:42.466Z,68.93
2022-07-29T11:58:03.908Z,68.86
2022-07-29T11:59:15.304Z,69.36
2022-07-29T12:00:39.244Z,69.36
2022-07-29T12:02:18.558Z,69.08
2022-07-29T12:03:37.200Z,68.98
2022-07-29T12:04:57.843Z,68.98
2022-07-29T12:06:07.952Z,68.52
2022-07-29T12:07:01.471Z,66.82
2022-07-29T12:07:02.774Z,67.05
2022-07-29T12:07:18.826Z,68.28
2022-07-29T12:08:29.462Z,68.10
2022-07-29T12:09:40.329Z,67.93
2022-07-29T12:10:52.820Z,67.91
2022-07-29T12:12:05.113Z,67.72
2022-07-29T12:13:17.467Z,67.68
2022-07-29T12:14:33.384Z,67.87
2022-07-29T12:15:46.260Z,68.21
2022-07-29T12:16:54.783Z,68.43
2022-07-29T12:18:18.340Z,68.42
2022-07-29T12:19:26.820Z,68.54
2022-07-29T12:20:32.873Z,68.60
2022-07-29T12:21:56.966Z,68.66
2022-07-29T12:23:14.102Z,68.58
2022-07-29T12:24:26.731Z,68.72
2022-07-29T12:25:38.625Z,68.70
2022-07-29T12:26:59.451Z,68.64
2022-07-29T12:28:09.363Z,68.70
2022-07-29T12:29:34.516Z,68.93
2022-07-29T12:30:51.718Z,69.33
2022-07-29T12:32:01.680Z,69.49
2022-07-29T12:33:23.274Z,69.62
2022-07-29T12:34:30.102Z,69.59
2022-07-29T12:35:35.924Z,69.47
2022-07-29T12:36:45.765Z,69.58
2022-07-29T12:37:54.440Z,69.72
2022-07-29T12:39:05.653Z,70.17
2022-07-29T12:40:14.482Z,70.03
2022-07-29T12:41:20.470Z,70.21
2022-07-29T12:42:26.964Z,70.50
2022-07-29T12:43:37.641Z,70.22
2022-07-29T12:44:50.941Z,70.27
2022-07-29T12:46:01.699Z,70.22
2022-07-29T12:47:09.135Z,70.30
2022-07-29T12:48:15.375Z,70.21
2022-07-29T12:49:28.709Z,70.45
2022-07-29T12:50:34.901Z,70.53
2022-07-29T12:51:44.016Z,71.10
2022-07-29T12:52:51.252Z,71.09
2022-07-29T12:54:15.097Z,70.67
2022-07-29T12:55:53.172Z,70.65
2022-07-29T12:57:05.694Z,71.19
2022-07-29T12:58:11.599Z,71.22
2022-07-29T12:59:25.568Z,71.08
2022-07-29T13:00:32.199Z,71.16
2022-07-29T13:01:40.740Z,71.18
2022-07-29T13:02:47.275Z,71.07
2022-07-29T13:04:03.692Z,71.07
2022-07-29T13:05:11.785Z,70.94
2022-07-29T13:06:49.708Z,71.06
2022-07-29T13:08:21.895Z,70.89
2022-07-29T13:09:45.560Z,70.80
2022-07-29T13:10:52.978Z,70.65
2022-07-29T13:11:59.421Z,70.69
2022-07-29T13:13:12.216Z,70.82
2022-07-29T13:14:35.284Z,71.12
2022-07-29T13:15:44.229Z,71.08
2022-07-29T13:17:14.646Z,71.10
2022-07-29T13:18:36.910Z,71.06
2022-07-29T13:19:54.054Z,70.94
2022-07-29T13:21:12.658Z,71.12
2022-07-29T13:22:25.050Z,70.62
2022-07-29T13:23:32.267Z,70.56
2022-07-29T13:24:56.498Z,70.84
2022-07-29T13:26:11.353Z,71.07
2022-07-29T13:27:21.553Z,70.95
2022-07-29T13:28:27.397Z,71.25
2022-07-29T13:29:34.295Z,71.32
2022-07-29T13:30:44.610Z,71.23
2022-07-29T13:31:54.540Z,71.20
2022-07-29T13:33:03.049Z,71.29
2022-07-29T13:34:10.108Z,71.27
2022-07-29T13:35:16.426Z,71.17
2022-07-29T13:36:24.968Z,71.00
2022-07-29T13:37:36.505Z,70.92
2022-07-29T13:38:43.340Z,70.97
2022-07-29T13:39:53.347Z,70.79
2022-07-29T13:41:01.918Z,70.53
2022-07-29T13:42:11.487Z,70.53
2022-07-29T13:43:17.489Z,70.60
2022-07-29T13:44:26.144Z,70.69
2022-07-29T13:45:31.878Z,70.69
2022-07-29T13:46:40.028Z,70.67
2022-07-29T13:47:50.269Z,70.45
2022-07-29T13:48:58.903Z,70.41
2022-07-29T13:50:10.925Z,70.21
2022-07-29T13:51:18.924Z,70.09
2022-07-29T13:52:27.928Z,69.98
2022-07-29T13:53:37.500Z,69.86
2022-07-29T13:54:46.031Z,70.07
2022-07-29T13:55:53.479Z,70.20
2022-07-29T13:57:01.173Z,70.21
2022-07-29T13:58:09.018Z,70.27
2022-07-29T13:59:16.394Z,70.35
2022-07-29T14:00:25.653Z,70.33
2022-07-29T14:01:36.555Z,70.33
2022-07-29T14:02:43.258Z,70.25
2022-07-29T14:03:51.606Z,70.06
2022-07-29T14:05:01.146Z,69.83
2022-07-29T14:06:13.759Z,69.70
2022-07-29T14:07:19.952Z,69.68
2022-07-29T14:08:29.300Z,69.50
2022-07-29T14:09:41.505Z,69.50
2022-07-29T14:10:49.539Z,69.71
2022-07-29T14:12:02.119Z,69.61
2022-07-29T14:13:24.257Z,69.60
2022-07-29T14:14:38.085Z,69.34
2022-07-29T14:15:46.080Z,69.27
2022-07-29T14:16:52.451Z,69.14
2022-07-29T14:18:02.309Z,68.84
2022-07-29T14:19:09.998Z,68.95
2022-07-29T14:20:20.081Z,69.07
2022-07-29T14:21:28.214Z,69.05
2022-07-29T14:22:42.359Z,68.94
2022-07-29T14:23:56.226Z,68.88
2022-07-29T14:25:15.110Z,68.95
2022-07-29T14:26:25.591Z,68.85
2022-07-29T14:27:37.451Z,68.69
2022-07-29T14:28:46.082Z,68.51
2022-07-29T14:29:53.718Z,68.19
2022-07-29T14:31:02.005Z,67.88
2022-07-29T14:32:09.301Z,68.01
2022-07-29T14:33:16.884Z,67.73
2022-07-29T14:34:26.268Z,67.48
2022-07-29T14:35:32.406Z,67.28
2022-07-29T14:36:38.951Z,67.03
2022-07-29T14:37:48.912Z,66.44
2022-07-29T14:38:55.427Z,65.94
2022-07-29T14:40:05.934Z,65.59
2022-07-29T14:41:14.710Z,65.27
2022-07-29T14:42:22.260Z,65.23
2022-07-29T14:43:29.338Z,64.88
2022-07-29T14:44:36.387Z,64.95
2022-07-29T14:45:43.868Z,64.84
2022-07-29T14:46:51.141Z,64.79
2022-07-29T14:47:58.750Z,64.84
2022-07-29T14:49:06.539Z,64.67
2022-07-29T14:50:23.337Z,64.31
2022-07-29T14:51:39.158Z,64.13
2022-07-29T14:52:46.445Z,64.11
2022-07-29T14:53:53.904Z,64.04
2022-07-29T14:55:01.950Z,63.92
2022-07-29T14:56:34.961Z,63.66
2022-07-29T14:57:39.447Z,63.14
2022-07-29T14:58:51.713Z,62.86
2022-07-29T14:59:59.406Z,62.52
2022-07-29T15:01:05.352Z,62.23
2022-07-29T15:02:13.406Z,62.20
2022-07-29T15:03:23.776Z,60.95
2022-07-29T15:04:31.284Z,61.12
2022-07-29T15:05:37.215Z,60.31
2022-07-29T15:06:43.025Z,60.01
2022-07-29T15:07:49.400Z,59.19
2022-07-29T15:08:58.068Z,58.13
2022-07-29T15:10:08.516Z,57.57
2022-07-29T15:11:17.518Z,56.97
2022-07-29T15:12:28.107Z,56.80
2022-07-29T15:13:35.718Z,56.84
2022-07-29T15:14:45.786Z,56.42
2022-07-29T15:16:00.025Z,55.98
2022-07-29T15:17:09.109Z,56.38
2022-07-29T15:18:25.356Z,56.23
2022-07-29T15:19:35.874Z,56.11